sensor_id;sensor_type;location;lat;lon;timestamp;P1;durP1;ratioP1;P2;durP2;ratioP2
17133;SDS011;8682;52.120;5.252;2022-07-10T00:01:48;130.50;;;47.50;;
17133;SDS011;8682;52.120;5.252;2022-07-10T00:04:15;115.67;;;45.97;;
17133;SDS011;8682;52.120;5.252;2022-07-10T00:06:44;126.77;;;53.50;;
17133;SDS011;8682;52.120;5.252;2022-07-10T00:09:13;125.43;;;43.73;;
17133;SDS011;8682;52.120;5.252;2022-07-10T00:11:40;124.93;;;50.93;;
17133;SDS011;8682;52.120;5.252;2022-07-10T00:14:07;127.13;;;53.60;;
17133;SDS011;8682;52.120;5.252;2022-07-10T00:16:35;154.13;;;51.97;;
17133;SDS011;8682;52.120;5.252;2022-07-10T00:19:02;131.80;;;60.63;;
17133;SDS011;8682;52.120;5.252;2022-07-10T00:21:29;134.20;;;59.93;;
17133;SDS011;8682;52.120;5.252;2022-07-10T00:23:56;136.87;;;63.93;;
17133;SDS011;8682;52.120;5.252;2022-07-10T00:26:24;141.53;;;63.90;;
17133;SDS011;8682;52.120;5.252;2022-07-10T00:28:52;125.30;;;50.93;;
17133;SDS011;8682;52.120;5.252;2022-07-10T00:31:20;132.80;;;59.53;;
17133;SDS011;8682;52.120;5.252;2022-07-10T00:33:47;147.73;;;57.17;;
17133;SDS011;8682;52.120;5.252;2022-07-10T00:36:14;118.63;;;41.27;;
17133;SDS011;8682;52.120;5.252;2022-07-10T00:38:41;104.50;;;40.47;;
17133;SDS011;8682;52.120;5.252;2022-07-10T00:41:08;131.50;;;56.77;;
17133;SDS011;8682;52.120;5.252;2022-07-10T00:46:18;122.67;;;54.90;;
17133;SDS011;8682;52.120;5.252;2022-07-10T00:48:46;141.87;;;60.93;;
17133;SDS011;8682;52.120;5.252;2022-07-10T00:51:13;130.73;;;61.47;;
17133;SDS011;8682;52.120;5.252;2022-07-10T00:53:40;115.00;;;57.57;;
17133;SDS011;8682;52.120;5.252;2022-07-10T00:56:08;129.43;;;60.57;;
17133;SDS011;8682;52.120;5.252;2022-07-10T00:58:35;129.90;;;65.23;;
17133;SDS011;8682;52.120;5.252;2022-07-10T01:01:04;131.30;;;60.73;;
17133;SDS011;8682;52.120;5.252;2022-07-10T01:03:33;116.00;;;60.77;;
17133;SDS011;8682;52.120;5.252;2022-07-10T01:06:00;112.97;;;65.53;;
17133;SDS011;8682;52.120;5.252;2022-07-10T01:08:27;125.60;;;69.67;;
17133;SDS011;8682;52.120;5.252;2022-07-10T01:10:54;117.90;;;59.73;;
17133;SDS011;8682;52.120;5.252;2022-07-10T01:13:22;116.57;;;59.83;;
17133;SDS011;8682;52.120;5.252;2022-07-10T01:15:49;127.87;;;70.67;;
17133;SDS011;8682;52.120;5.252;2022-07-10T01:18:16;122.93;;;69.87;;
17133;SDS011;8682;52.120;5.252;2022-07-10T01:20:44;115.90;;;65.10;;
17133;SDS011;8682;52.120;5.252;2022-07-10T01:23:13;136.93;;;75.40;;
17133;SDS011;8682;52.120;5.252;2022-07-10T01:25:40;122.77;;;74.00;;
17133;SDS011;8682;52.120;5.252;2022-07-10T01:28:07;125.67;;;73.17;;
17133;SDS011;8682;52.120;5.252;2022-07-10T01:30:34;129.47;;;83.73;;
17133;SDS011;8682;52.120;5.252;2022-07-10T01:33:02;132.17;;;72.77;;
17133;SDS011;8682;52.120;5.252;2022-07-10T01:35:29;138.93;;;82.77;;
17133;SDS011;8682;52.120;5.252;2022-07-10T01:37:56;141.87;;;83.73;;
17133;SDS011;8682;52.120;5.252;2022-07-10T01:40:25;136.90;;;79.23;;
17133;SDS011;8682;52.120;5.252;2022-07-10T01:42:52;151.23;;;90.90;;
17133;SDS011;8682;52.120;5.252;2022-07-10T01:45:20;143.70;;;85.07;;
17133;SDS011;8682;52.120;5.252;2022-07-10T01:47:47;142.47;;;79.33;;
17133;SDS011;8682;52.120;5.252;2022-07-10T01:50:14;133.37;;;80.67;;
17133;SDS011;8682;52.120;5.252;2022-07-10T01:52:41;123.37;;;73.17;;
17133;SDS011;8682;52.120;5.252;2022-07-10T01:55:09;136.10;;;77.67;;
17133;SDS011;8682;52.120;5.252;2022-07-10T01:57:37;139.60;;;82.67;;
17133;SDS011;8682;52.120;5.252;2022-07-10T02:00:05;141.87;;;83.70;;
17133;SDS011;8682;52.120;5.252;2022-07-10T02:02:33;143.63;;;74.47;;
17133;SDS011;8682;52.120;5.252;2022-07-10T02:05:00;130.70;;;69.07;;
17133;SDS011;8682;52.120;5.252;2022-07-10T02:07:26;125.17;;;70.53;;
17133;SDS011;8682;52.120;5.252;2022-07-10T02:09:53;118.87;;;73.17;;
17133;SDS011;8682;52.120;5.252;2022-07-10T02:12:20;126.43;;;69.10;;
17133;SDS011;8682;52.120;5.252;2022-07-10T02:14:49;120.23;;;73.00;;
17133;SDS011;8682;52.120;5.252;2022-07-10T02:17:16;115.03;;;70.57;;
17133;SDS011;8682;52.120;5.252;2022-07-10T02:19:43;144.80;;;72.57;;
17133;SDS011;8682;52.120;5.252;2022-07-10T02:22:10;119.60;;;67.87;;
17133;SDS011;8682;52.120;5.252;2022-07-10T02:24:37;128.53;;;70.10;;
17133;SDS011;8682;52.120;5.252;2022-07-10T02:27:04;131.30;;;71.47;;
17133;SDS011;8682;52.120;5.252;2022-07-10T02:29:32;122.47;;;65.23;;
17133;SDS011;8682;52.120;5.252;2022-07-10T02:32:00;129.57;;;65.73;;
17133;SDS011;8682;52.120;5.252;2022-07-10T02:34:28;130.63;;;68.60;;
17133;SDS011;8682;52.120;5.252;2022-07-10T02:36:55;113.23;;;67.47;;
17133;SDS011;8682;52.120;5.252;2022-07-10T02:39:22;116.60;;;68.37;;
17133;SDS011;8682;52.120;5.252;2022-07-10T02:41:49;138.97;;;75.77;;
17133;SDS011;8682;52.120;5.252;2022-07-10T02:44:16;140.43;;;79.50;;
17133;SDS011;8682;52.120;5.252;2022-07-10T02:46:43;122.40;;;66.90;;
17133;SDS011;8682;52.120;5.252;2022-07-10T02:49:12;120.93;;;70.23;;
17133;SDS011;8682;52.120;5.252;2022-07-10T02:51:39;123.63;;;68.77;;
17133;SDS011;8682;52.120;5.252;2022-07-10T02:54:06;120.87;;;67.23;;
17133;SDS011;8682;52.120;5.252;2022-07-10T02:56:33;126.77;;;63.73;;
17133;SDS011;8682;52.120;5.252;2022-07-10T02:59:01;127.57;;;66.47;;
17133;SDS011;8682;52.120;5.252;2022-07-10T03:01:28;143.90;;;66.80;;
17133;SDS011;8682;52.120;5.252;2022-07-10T03:03:56;117.63;;;59.03;;
17133;SDS011;8682;52.120;5.252;2022-07-10T03:06:24;121.97;;;59.43;;
17133;SDS011;8682;52.120;5.252;2022-07-10T03:08:51;118.13;;;65.43;;
17133;SDS011;8682;52.120;5.252;2022-07-10T03:11:18;138.97;;;70.90;;
17133;SDS011;8682;52.120;5.252;2022-07-10T03:13:45;131.03;;;74.17;;
17133;SDS011;8682;52.120;5.252;2022-07-10T03:16:12;118.33;;;73.67;;
17133;SDS011;8682;52.120;5.252;2022-07-10T03:18:40;133.00;;;71.73;;
17133;SDS011;8682;52.120;5.252;2022-07-10T03:21:07;110.30;;;67.23;;
17133;SDS011;8682;52.120;5.252;2022-07-10T03:23:35;118.23;;;61.57;;
17133;SDS011;8682;52.120;5.252;2022-07-10T03:26:04;110.77;;;73.83;;
17133;SDS011;8682;52.120;5.252;2022-07-10T03:28:31;111.10;;;66.03;;
17133;SDS011;8682;52.120;5.252;2022-07-10T03:30:58;121.63;;;71.43;;
17133;SDS011;8682;52.120;5.252;2022-07-10T03:33:25;131.87;;;68.83;;
17133;SDS011;8682;52.120;5.252;2022-07-10T03:35:52;115.07;;;65.87;;
17133;SDS011;8682;52.120;5.252;2022-07-10T03:38:20;116.77;;;66.00;;
17133;SDS011;8682;52.120;5.252;2022-07-10T03:40:48;114.80;;;67.03;;
17133;SDS011;8682;52.120;5.252;2022-07-10T03:43:15;130.00;;;76.23;;
17133;SDS011;8682;52.120;5.252;2022-07-10T03:45:42;123.93;;;82.07;;
17133;SDS011;8682;52.120;5.252;2022-07-10T03:48:09;125.13;;;75.43;;
17133;SDS011;8682;52.120;5.252;2022-07-10T03:50:36;128.10;;;79.73;;
17133;SDS011;8682;52.120;5.252;2022-07-10T03:53:03;110.77;;;72.67;;
17133;SDS011;8682;52.120;5.252;2022-07-10T03:55:31;139.97;;;84.17;;
17133;SDS011;8682;52.120;5.252;2022-07-10T03:58:00;127.03;;;75.10;;
17133;SDS011;8682;52.120;5.252;2022-07-10T04:00:28;131.73;;;88.00;;
17133;SDS011;8682;52.120;5.252;2022-07-10T04:02:57;128.10;;;81.13;;
17133;SDS011;8682;52.120;5.252;2022-07-10T04:05:24;5.70;;;3.97;;
17133;SDS011;8682;52.120;5.252;2022-07-10T04:07:52;111.47;;;58.13;;
17133;SDS011;8682;52.120;5.252;2022-07-10T04:10:19;122.67;;;72.57;;
17133;SDS011;8682;52.120;5.252;2022-07-10T04:12:46;114.70;;;63.63;;
17133;SDS011;8682;52.120;5.252;2022-07-10T04:15:15;122.60;;;71.90;;
17133;SDS011;8682;52.120;5.252;2022-07-10T04:17:42;129.03;;;77.20;;
17133;SDS011;8682;52.120;5.252;2022-07-10T04:20:09;121.63;;;76.27;;
17133;SDS011;8682;52.120;5.252;2022-07-10T04:22:37;128.10;;;80.50;;
17133;SDS011;8682;52.120;5.252;2022-07-10T04:25:04;119.87;;;68.30;;
17133;SDS011;8682;52.120;5.252;2022-07-10T04:27:31;109.03;;;71.43;;
17133;SDS011;8682;52.120;5.252;2022-07-10T04:29:59;123.17;;;73.70;;
17133;SDS011;8682;52.120;5.252;2022-07-10T04:32:27;131.40;;;75.00;;
17133;SDS011;8682;52.120;5.252;2022-07-10T04:34:54;114.40;;;71.87;;
17133;SDS011;8682;52.120;5.252;2022-07-10T04:37:21;143.73;;;88.83;;
17133;SDS011;8682;52.120;5.252;2022-07-10T04:39:48;130.00;;;86.57;;
17133;SDS011;8682;52.120;5.252;2022-07-10T04:42:16;128.70;;;86.07;;
17133;SDS011;8682;52.120;5.252;2022-07-10T04:44:43;135.70;;;86.10;;
17133;SDS011;8682;52.120;5.252;2022-07-10T04:47:10;135.83;;;91.50;;
17133;SDS011;8682;52.120;5.252;2022-07-10T04:49:38;133.87;;;84.97;;
17133;SDS011;8682;52.120;5.252;2022-07-10T04:52:06;153.77;;;91.83;;
17133;SDS011;8682;52.120;5.252;2022-07-10T04:54:33;157.57;;;96.90;;
17133;SDS011;8682;52.120;5.252;2022-07-10T04:57:00;165.53;;;103.47;;
17133;SDS011;8682;52.120;5.252;2022-07-10T04:59:27;190.10;;;115.23;;
17133;SDS011;8682;52.120;5.252;2022-07-10T05:01:54;193.73;;;121.93;;
17133;SDS011;8682;52.120;5.252;2022-07-10T05:04:21;222.20;;;140.50;;
17133;SDS011;8682;52.120;5.252;2022-07-10T05:06:50;271.23;;;166.70;;
17133;SDS011;8682;52.120;5.252;2022-07-10T05:09:17;234.30;;;171.30;;
17133;SDS011;8682;52.120;5.252;2022-07-10T05:11:45;237.67;;;157.73;;
17133;SDS011;8682;52.120;5.252;2022-07-10T05:14:12;250.70;;;165.70;;
17133;SDS011;8682;52.120;5.252;2022-07-10T05:16:39;227.90;;;142.20;;
17133;SDS011;8682;52.120;5.252;2022-07-10T05:19:06;176.40;;;120.27;;
17133;SDS011;8682;52.120;5.252;2022-07-10T05:21:33;212.53;;;135.47;;
17133;SDS011;8682;52.120;5.252;2022-07-10T05:24:02;172.80;;;105.53;;
17133;SDS011;8682;52.120;5.252;2022-07-10T05:26:29;162.00;;;109.00;;
17133;SDS011;8682;52.120;5.252;2022-07-10T05:28:56;179.87;;;110.10;;
17133;SDS011;8682;52.120;5.252;2022-07-10T05:31:23;171.43;;;106.80;;
17133;SDS011;8682;52.120;5.252;2022-07-10T05:33:50;148.07;;;93.80;;
17133;SDS011;8682;52.120;5.252;2022-07-10T05:36:18;153.10;;;83.73;;
17133;SDS011;8682;52.120;5.252;2022-07-10T05:38:45;147.80;;;80.97;;
17133;SDS011;8682;52.120;5.252;2022-07-10T05:41:13;128.70;;;74.20;;
17133;SDS011;8682;52.120;5.252;2022-07-10T05:43:40;134.17;;;78.50;;
17133;SDS011;8682;52.120;5.252;2022-07-10T05:46:07;119.20;;;72.43;;
17133;SDS011;8682;52.120;5.252;2022-07-10T05:48:35;146.90;;;89.73;;
17133;SDS011;8682;52.120;5.252;2022-07-10T05:51:03;133.43;;;84.07;;
17133;SDS011;8682;52.120;5.252;2022-07-10T05:53:30;137.87;;;85.67;;
17133;SDS011;8682;52.120;5.252;2022-07-10T05:55:59;127.17;;;77.63;;
17133;SDS011;8682;52.120;5.252;2022-07-10T05:58:28;139.30;;;89.97;;
17133;SDS011;8682;52.120;5.252;2022-07-10T06:00:55;150.63;;;98.27;;
17133;SDS011;8682;52.120;5.252;2022-07-10T06:03:22;158.30;;;93.30;;
17133;SDS011;8682;52.120;5.252;2022-07-10T06:05:49;152.77;;;89.97;;
17133;SDS011;8682;52.120;5.252;2022-07-10T06:08:16;156.37;;;92.50;;
17133;SDS011;8682;52.120;5.252;2022-07-10T06:10:43;135.50;;;83.30;;
17133;SDS011;8682;52.120;5.252;2022-07-10T06:13:11;145.60;;;87.37;;
17133;SDS011;8682;52.120;5.252;2022-07-10T06:15:39;130.77;;;83.13;;
17133;SDS011;8682;52.120;5.252;2022-07-10T06:18:06;126.03;;;84.20;;
17133;SDS011;8682;52.120;5.252;2022-07-10T06:20:33;128.97;;;80.17;;
17133;SDS011;8682;52.120;5.252;2022-07-10T06:23:00;158.23;;;85.47;;
17133;SDS011;8682;52.120;5.252;2022-07-10T06:25:28;163.47;;;87.67;;
17133;SDS011;8682;52.120;5.252;2022-07-10T06:27:55;159.63;;;88.10;;
17133;SDS011;8682;52.120;5.252;2022-07-10T06:30:22;161.60;;;85.27;;
17133;SDS011;8682;52.120;5.252;2022-07-10T06:32:50;158.00;;;80.97;;
17133;SDS011;8682;52.120;5.252;2022-07-10T06:35:17;142.83;;;85.17;;
17133;SDS011;8682;52.120;5.252;2022-07-10T06:37:44;160.30;;;91.23;;
17133;SDS011;8682;52.120;5.252;2022-07-10T06:40:12;145.73;;;83.03;;
17133;SDS011;8682;52.120;5.252;2022-07-10T06:42:40;155.17;;;89.43;;
17133;SDS011;8682;52.120;5.252;2022-07-10T06:45:07;185.83;;;98.37;;
17133;SDS011;8682;52.120;5.252;2022-07-10T06:47:34;179.60;;;92.83;;
17133;SDS011;8682;52.120;5.252;2022-07-10T06:50:20;177.17;;;99.00;;
17133;SDS011;8682;52.120;5.252;2022-07-10T06:52:47;190.97;;;106.17;;
17133;SDS011;8682;52.120;5.252;2022-07-10T06:55:15;166.23;;;109.30;;
17133;SDS011;8682;52.120;5.252;2022-07-10T06:57:42;240.40;;;117.73;;
17133;SDS011;8682;52.120;5.252;2022-07-10T07:00:10;210.53;;;113.40;;
17133;SDS011;8682;52.120;5.252;2022-07-10T07:02:37;213.53;;;128.80;;
17133;SDS011;8682;52.120;5.252;2022-07-10T07:05:05;201.53;;;128.50;;
17133;SDS011;8682;52.120;5.252;2022-07-10T07:07:34;240.27;;;134.33;;
17133;SDS011;8682;52.120;5.252;2022-07-10T07:10:01;234.40;;;138.40;;
17133;SDS011;8682;52.120;5.252;2022-07-10T07:12:29;243.47;;;138.87;;
17133;SDS011;8682;52.120;5.252;2022-07-10T07:14:56;294.13;;;156.57;;
17133;SDS011;8682;52.120;5.252;2022-07-10T07:17:23;283.60;;;175.00;;
17133;SDS011;8682;52.120;5.252;2022-07-10T07:19:58;321.70;;;198.60;;
17133;SDS011;8682;52.120;5.252;2022-07-10T07:22:45;392.30;;;311.47;;
17133;SDS011;8682;52.120;5.252;2022-07-10T07:25:30;332.40;;;248.93;;
17133;SDS011;8682;52.120;5.252;2022-07-10T07:27:57;418.13;;;356.10;;
17133;SDS011;8682;52.120;5.252;2022-07-10T07:30:24;1840.20;;;999.90;;
17133;SDS011;8682;52.120;5.252;2022-07-10T07:32:51;1999.90;;;999.90;;
17133;SDS011;8682;52.120;5.252;2022-07-10T07:35:18;1999.90;;;999.90;;
17133;SDS011;8682;52.120;5.252;2022-07-10T07:37:47;1999.90;;;999.90;;
17133;SDS011;8682;52.120;5.252;2022-07-10T07:40:15;1999.90;;;999.90;;
17133;SDS011;8682;52.120;5.252;2022-07-10T07:42:44;1999.90;;;999.90;;
17133;SDS011;8682;52.120;5.252;2022-07-10T07:45:12;1999.90;;;999.90;;
17133;SDS011;8682;52.120;5.252;2022-07-10T07:47:42;1999.90;;;999.90;;
17133;SDS011;8682;52.120;5.252;2022-07-10T07:50:10;1999.90;;;999.90;;
17133;SDS011;8682;52.120;5.252;2022-07-10T07:52:37;1999.90;;;999.90;;
17133;SDS011;8682;52.120;5.252;2022-07-10T07:55:06;1999.90;;;999.90;;
17133;SDS011;8682;52.120;5.252;2022-07-10T07:57:34;1999.90;;;999.90;;
17133;SDS011;8682;52.120;5.252;2022-07-10T08:00:01;1652.23;;;914.53;;
17133;SDS011;8682;52.120;5.252;2022-07-10T08:02:28;1384.87;;;829.13;;
17133;SDS011;8682;52.120;5.252;2022-07-10T08:04:55;1999.90;;;999.90;;
17133;SDS011;8682;52.120;5.252;2022-07-10T08:07:22;1941.03;;;930.57;;
17133;SDS011;8682;52.120;5.252;2022-07-10T08:09:49;805.87;;;494.37;;
17133;SDS011;8682;52.120;5.252;2022-07-10T08:12:17;1365.53;;;776.47;;
17133;SDS011;8682;52.120;5.252;2022-07-10T08:14:45;905.73;;;556.23;;
17133;SDS011;8682;52.120;5.252;2022-07-10T08:17:12;791.77;;;504.37;;
17133;SDS011;8682;52.120;5.252;2022-07-10T08:19:39;795.97;;;518.90;;
17133;SDS011;8682;52.120;5.252;2022-07-10T08:22:06;713.10;;;460.97;;
17133;SDS011;8682;52.120;5.252;2022-07-10T08:24:33;1602.23;;;867.63;;
17133;SDS011;8682;52.120;5.252;2022-07-10T08:27:00;854.50;;;485.63;;
17133;SDS011;8682;52.120;5.252;2022-07-10T08:29:29;481.37;;;341.40;;
17133;SDS011;8682;52.120;5.252;2022-07-10T08:31:56;346.53;;;256.50;;
17133;SDS011;8682;52.120;5.252;2022-07-10T08:34:23;426.63;;;289.10;;
17133;SDS011;8682;52.120;5.252;2022-07-10T08:36:50;586.63;;;513.80;;
17133;SDS011;8682;52.120;5.252;2022-07-10T08:39:17;1999.90;;;999.90;;
17133;SDS011;8682;52.120;5.252;2022-07-10T08:41:46;1999.90;;;999.90;;
17133;SDS011;8682;52.120;5.252;2022-07-10T08:44:15;1999.90;;;999.90;;
17133;SDS011;8682;52.120;5.252;2022-07-10T08:46:44;1999.90;;;999.90;;
17133;SDS011;8682;52.120;5.252;2022-07-10T08:49:11;1999.90;;;999.90;;
17133;SDS011;8682;52.120;5.252;2022-07-10T08:51:40;1999.90;;;999.90;;
17133;SDS011;8682;52.120;5.252;2022-07-10T08:54:08;1999.90;;;999.90;;
17133;SDS011;8682;52.120;5.252;2022-07-10T08:56:35;1999.90;;;999.90;;
17133;SDS011;8682;52.120;5.252;2022-07-10T08:59:02;1999.90;;;999.90;;
17133;SDS011;8682;52.120;5.252;2022-07-10T09:01:30;1999.90;;;999.90;;
17133;SDS011;8682;52.120;5.252;2022-07-10T09:03:59;1999.90;;;999.90;;
17133;SDS011;8682;52.120;5.252;2022-07-10T09:06:27;1999.90;;;999.90;;
17133;SDS011;8682;52.120;5.252;2022-07-10T09:08:58;1999.90;;;999.90;;
17133;SDS011;8682;52.120;5.252;2022-07-10T09:11:25;1999.90;;;999.90;;
17133;SDS011;8682;52.120;5.252;2022-07-10T09:13:54;1999.90;;;999.90;;
17133;SDS011;8682;52.120;5.252;2022-07-10T09:16:22;1999.90;;;999.90;;
17133;SDS011;8682;52.120;5.252;2022-07-10T09:18:49;1999.90;;;999.90;;
17133;SDS011;8682;52.120;5.252;2022-07-10T09:21:18;1999.90;;;999.90;;
17133;SDS011;8682;52.120;5.252;2022-07-10T09:23:45;1999.90;;;999.90;;
17133;SDS011;8682;52.120;5.252;2022-07-10T09:26:12;1999.90;;;999.90;;
17133;SDS011;8682;52.120;5.252;2022-07-10T09:28:39;1999.90;;;999.90;;
17133;SDS011;8682;52.120;5.252;2022-07-10T09:31:06;1999.90;;;999.90;;
17133;SDS011;8682;52.120;5.252;2022-07-10T09:33:34;1999.90;;;999.90;;
17133;SDS011;8682;52.120;5.252;2022-07-10T09:36:05;1999.90;;;999.90;;
17133;SDS011;8682;52.120;5.252;2022-07-10T09:38:53;1999.90;;;999.90;;
17133;SDS011;8682;52.120;5.252;2022-07-10T09:41:23;1999.90;;;999.90;;
17133;SDS011;8682;52.120;5.252;2022-07-10T09:43:51;1999.90;;;999.90;;
17133;SDS011;8682;52.120;5.252;2022-07-10T09:46:19;1999.90;;;999.90;;
17133;SDS011;8682;52.120;5.252;2022-07-10T09:48:47;1999.90;;;999.90;;
17133;SDS011;8682;52.120;5.252;2022-07-10T09:51:14;1999.90;;;999.90;;
17133;SDS011;8682;52.120;5.252;2022-07-10T09:53:42;1999.90;;;999.90;;
17133;SDS011;8682;52.120;5.252;2022-07-10T09:56:11;1999.90;;;999.90;;
17133;SDS011;8682;52.120;5.252;2022-07-10T09:58:39;1999.90;;;999.90;;
17133;SDS011;8682;52.120;5.252;2022-07-10T10:01:06;1999.90;;;999.90;;
17133;SDS011;8682;52.120;5.252;2022-07-10T10:03:34;1999.90;;;999.90;;
17133;SDS011;8682;52.120;5.252;2022-07-10T10:06:02;1999.90;;;999.90;;
17133;SDS011;8682;52.120;5.252;2022-07-10T10:08:31;1999.90;;;999.90;;
17133;SDS011;8682;52.120;5.252;2022-07-10T10:10:59;1999.90;;;999.90;;
17133;SDS011;8682;52.120;5.252;2022-07-10T10:13:28;1999.90;;;999.90;;
17133;SDS011;8682;52.120;5.252;2022-07-10T10:15:55;1999.90;;;999.90;;
17133;SDS011;8682;52.120;5.252;2022-07-10T10:18:23;1999.90;;;999.90;;
17133;SDS011;8682;52.120;5.252;2022-07-10T10:20:51;1999.90;;;999.90;;
17133;SDS011;8682;52.120;5.252;2022-07-10T10:23:18;1999.90;;;999.90;;
17133;SDS011;8682;52.120;5.252;2022-07-10T10:25:46;1999.90;;;999.90;;
17133;SDS011;8682;52.120;5.252;2022-07-10T10:28:13;1999.90;;;999.90;;
17133;SDS011;8682;52.120;5.252;2022-07-10T10:30:43;1999.90;;;999.90;;
17133;SDS011;8682;52.120;5.252;2022-07-10T10:35:59;1999.90;;;999.90;;
17133;SDS011;8682;52.120;5.252;2022-07-10T10:38:29;1999.90;;;999.90;;
17133;SDS011;8682;52.120;5.252;2022-07-10T10:41:22;1999.90;;;999.90;;
17133;SDS011;8682;52.120;5.252;2022-07-10T10:44:01;1999.90;;;999.90;;
17133;SDS011;8682;52.120;5.252;2022-07-10T10:46:56;1999.90;;;999.90;;
17133;SDS011;8682;52.120;5.252;2022-07-10T10:49:26;1999.90;;;999.90;;
17133;SDS011;8682;52.120;5.252;2022-07-10T10:51:56;1999.90;;;999.90;;
17133;SDS011;8682;52.120;5.252;2022-07-10T10:54:24;1999.90;;;999.90;;
17133;SDS011;8682;52.120;5.252;2022-07-10T10:59:45;1999.90;;;999.90;;
17133;SDS011;8682;52.120;5.252;2022-07-10T11:02:24;1999.90;;;999.90;;
17133;SDS011;8682;52.120;5.252;2022-07-10T11:04:53;1999.90;;;999.90;;
17133;SDS011;8682;52.120;5.252;2022-07-10T11:07:52;1999.90;;;999.90;;
17133;SDS011;8682;52.120;5.252;2022-07-10T11:10:28;1999.90;;;999.90;;
17133;SDS011;8682;52.120;5.252;2022-07-10T11:12:57;1999.90;;;999.90;;
17133;SDS011;8682;52.120;5.252;2022-07-10T11:15:24;1999.90;;;999.90;;
17133;SDS011;8682;52.120;5.252;2022-07-10T11:17:56;1999.90;;;999.90;;
17133;SDS011;8682;52.120;5.252;2022-07-10T11:20:23;1999.90;;;999.90;;
17133;SDS011;8682;52.120;5.252;2022-07-10T11:22:52;1999.90;;;999.90;;
17133;SDS011;8682;52.120;5.252;2022-07-10T11:25:37;1999.90;;;999.90;;
17133;SDS011;8682;52.120;5.252;2022-07-10T11:28:09;1999.90;;;999.90;;
17133;SDS011;8682;52.120;5.252;2022-07-10T11:30:43;1999.90;;;999.90;;
17133;SDS011;8682;52.120;5.252;2022-07-10T11:33:12;1999.90;;;999.90;;
17133;SDS011;8682;52.120;5.252;2022-07-10T11:35:39;1999.90;;;999.90;;
17133;SDS011;8682;52.120;5.252;2022-07-10T11:38:06;1999.90;;;999.90;;
17133;SDS011;8682;52.120;5.252;2022-07-10T11:40:35;1999.90;;;999.90;;
17133;SDS011;8682;52.120;5.252;2022-07-10T11:43:02;1999.90;;;999.90;;
17133;SDS011;8682;52.120;5.252;2022-07-10T11:45:32;1999.90;;;999.90;;
17133;SDS011;8682;52.120;5.252;2022-07-10T11:48:03;1999.90;;;999.90;;
17133;SDS011;8682;52.120;5.252;2022-07-10T11:50:35;1999.90;;;999.90;;
17133;SDS011;8682;52.120;5.252;2022-07-10T11:53:03;1999.90;;;999.90;;
17133;SDS011;8682;52.120;5.252;2022-07-10T11:55:30;1999.90;;;999.90;;
17133;SDS011;8682;52.120;5.252;2022-07-10T11:58:11;1999.90;;;999.90;;
17133;SDS011;8682;52.120;5.252;2022-07-10T12:00:39;1999.90;;;999.90;;
17133;SDS011;8682;52.120;5.252;2022-07-10T12:03:15;1999.90;;;999.90;;
17133;SDS011;8682;52.120;5.252;2022-07-10T12:05:44;1999.90;;;999.90;;
17133;SDS011;8682;52.120;5.252;2022-07-10T12:08:11;1999.90;;;999.90;;
17133;SDS011;8682;52.120;5.252;2022-07-10T12:10:39;1999.90;;;999.90;;
17133;SDS011;8682;52.120;5.252;2022-07-10T12:13:08;1999.90;;;694.05;;
17133;SDS011;8682;52.120;5.252;2022-07-10T12:15:36;1999.90;;;735.88;;
17133;SDS011;8682;52.120;5.252;2022-07-10T12:18:04;1999.90;;;999.90;;
17133;SDS011;8682;52.120;5.252;2022-07-10T12:20:31;1999.90;;;944.78;;
17133;SDS011;8682;52.120;5.252;2022-07-10T12:23:00;1999.90;;;999.90;;
17133;SDS011;8682;52.120;5.252;2022-07-10T12:25:27;1999.90;;;931.05;;
17133;SDS011;8682;52.120;5.252;2022-07-10T12:27:55;1999.90;;;999.90;;
17133;SDS011;8682;52.120;5.252;2022-07-10T12:30:23;1999.90;;;999.90;;
17133;SDS011;8682;52.120;5.252;2022-07-10T12:32:50;1999.90;;;999.90;;
17133;SDS011;8682;52.120;5.252;2022-07-10T12:35:17;1999.90;;;999.90;;
17133;SDS011;8682;52.120;5.252;2022-07-10T12:37:46;1999.90;;;999.13;;
17133;SDS011;8682;52.120;5.252;2022-07-10T12:43:02;1999.90;;;999.90;;
17133;SDS011;8682;52.120;5.252;2022-07-10T12:45:30;1999.90;;;999.90;;
17133;SDS011;8682;52.120;5.252;2022-07-10T12:47:57;1999.90;;;816.15;;
17133;SDS011;8682;52.120;5.252;2022-07-10T12:50:25;1999.90;;;999.90;;
17133;SDS011;8682;52.120;5.252;2022-07-10T12:53:06;1999.90;;;999.90;;
17133;SDS011;8682;52.120;5.252;2022-07-10T12:55:37;1999.90;;;999.90;;
17133;SDS011;8682;52.120;5.252;2022-07-10T12:58:08;1999.90;;;996.47;;
17133;SDS011;8682;52.120;5.252;2022-07-10T13:00:42;1999.90;;;999.90;;
17133;SDS011;8682;52.120;5.252;2022-07-10T13:03:10;1999.90;;;999.90;;
17133;SDS011;8682;52.120;5.252;2022-07-10T13:05:40;1999.90;;;999.90;;
17133;SDS011;8682;52.120;5.252;2022-07-10T13:08:08;1999.90;;;999.90;;
17133;SDS011;8682;52.120;5.252;2022-07-10T13:10:37;1999.90;;;999.90;;
17133;SDS011;8682;52.120;5.252;2022-07-10T13:13:04;1999.90;;;999.90;;
17133;SDS011;8682;52.120;5.252;2022-07-10T13:15:34;1999.90;;;999.90;;
17133;SDS011;8682;52.120;5.252;2022-07-10T13:18:05;1999.90;;;999.90;;
17133;SDS011;8682;52.120;5.252;2022-07-10T13:20:32;1999.90;;;999.90;;
17133;SDS011;8682;52.120;5.252;2022-07-10T13:22:59;1999.90;;;999.90;;
17133;SDS011;8682;52.120;5.252;2022-07-10T13:25:26;1999.90;;;999.90;;
17133;SDS011;8682;52.120;5.252;2022-07-10T13:27:54;1999.90;;;999.90;;
17133;SDS011;8682;52.120;5.252;2022-07-10T13:30:21;1999.90;;;999.90;;
17133;SDS011;8682;52.120;5.252;2022-07-10T13:32:49;1999.90;;;999.90;;
17133;SDS011;8682;52.120;5.252;2022-07-10T13:35:16;1999.90;;;999.90;;
17133;SDS011;8682;52.120;5.252;2022-07-10T13:37:44;1999.90;;;999.90;;
17133;SDS011;8682;52.120;5.252;2022-07-10T13:40:11;1999.90;;;999.90;;
17133;SDS011;8682;52.120;5.252;2022-07-10T13:42:38;1999.90;;;999.90;;
17133;SDS011;8682;52.120;5.252;2022-07-10T13:45:06;1999.90;;;999.90;;
17133;SDS011;8682;52.120;5.252;2022-07-10T13:47:34;1999.90;;;999.90;;
17133;SDS011;8682;52.120;5.252;2022-07-10T13:50:02;1999.90;;;999.90;;
17133;SDS011;8682;52.120;5.252;2022-07-10T13:52:29;1999.90;;;999.90;;
17133;SDS011;8682;52.120;5.252;2022-07-10T13:54:57;1999.90;;;999.90;;
17133;SDS011;8682;52.120;5.252;2022-07-10T13:57:24;1999.90;;;999.90;;
17133;SDS011;8682;52.120;5.252;2022-07-10T13:59:52;1999.90;;;999.90;;
17133;SDS011;8682;52.120;5.252;2022-07-10T14:02:19;1999.90;;;999.90;;
17133;SDS011;8682;52.120;5.252;2022-07-10T14:04:46;1999.90;;;999.90;;
17133;SDS011;8682;52.120;5.252;2022-07-10T14:07:15;1999.90;;;999.90;;
17133;SDS011;8682;52.120;5.252;2022-07-10T14:09:42;1999.90;;;999.90;;
17133;SDS011;8682;52.120;5.252;2022-07-10T14:12:09;1999.90;;;999.90;;
17133;SDS011;8682;52.120;5.252;2022-07-10T14:14:37;1999.90;;;999.90;;
17133;SDS011;8682;52.120;5.252;2022-07-10T14:17:05;1999.90;;;999.90;;
17133;SDS011;8682;52.120;5.252;2022-07-10T14:19:32;1999.90;;;999.90;;
17133;SDS011;8682;52.120;5.252;2022-07-10T14:21:59;1999.90;;;999.90;;
17133;SDS011;8682;52.120;5.252;2022-07-10T14:24:28;1999.90;;;999.90;;
17133;SDS011;8682;52.120;5.252;2022-07-10T14:26:55;1999.90;;;999.90;;